Time;durP1;ratioP1;P1;durP2;ratioP2;P2;SDS_P1;SDS_P2;PMS_P1;PMS_P2;Temp;Humidity;BMP_temperature;BMP_pressure;BME280_temperature;BME280_humidity;BME280_pressure;Samples;Min_cycle;Max_cycle;Signal;HPM_P1;HPM_P2
2023/06/08 00:00:12;;;;;;;3.80;3.50;;;;;;;;;;4905177;29;20519;-75
2023/06/08 00:02:43;;;;;;;4.10;3.80;;;;;;;;;;4922940;29;20044;-75
2023/06/08 00:05:14;;;;;;;4.50;4.07;;;;;;;;;;4908425;29;20064;-75
2023/06/08 00:07:41;;;;;;;4.15;3.85;;;;;;;;;;4908114;29;20055;-76
2023/06/08 00:10:09;;;;;;;3.83;3.45;;;;;;;;;;4907554;29;20087;-76
2023/06/08 00:12:38;;;;;;;3.90;3.60;;;;;;;;;;4905052;29;20415;-75
2023/06/08 00:15:07;;;;;;;4.00;3.65;;;;;;;;;;4916536;29;20487;-75
2023/06/08 00:17:34;;;;;;;4.05;3.75;;;;;;;;;;4922958;29;20076;-75
2023/06/08 00:20:08;;;;;;;3.85;3.65;;;;;;;;;;4908243;29;20036;-76
2023/06/08 00:22:36;;;;;;;3.90;3.40;;;;;;;;;;4921874;29;20056;-75
2023/06/08 00:25:05;;;;;;;3.30;3.10;;;;;;;;;;4906611;29;20040;-76
2023/06/08 00:27:32;;;;;;;3.58;3.28;;;;;;;;;;4912852;29;20079;-75
2023/06/08 00:30:00;;;;;;;3.67;3.47;;;;;;;;;;4906524;29;20056;-76
2023/06/08 00:32:28;;;;;;;3.50;3.30;;;;;;;;;;4923621;29;20052;-76
2023/06/08 00:34:55;;;;;;;3.72;3.53;;;;;;;;;;4907690;29;20047;-75
2023/06/08 00:37:23;;;;;;;3.80;3.60;;;;;;;;;;4916195;29;20098;-75
2023/06/08 00:39:50;;;;;;;3.67;3.38;;;;;;;;;;4909301;29;20283;-76
2023/06/08 00:42:18;;;;;;;3.60;3.40;;;;;;;;;;4911819;29;20132;-77
2023/06/08 00:44:46;;;;;;;3.47;3.28;;;;;;;;;;4915238;29;20059;-76
2023/06/08 00:47:14;;;;;;;4.07;3.70;;;;;;;;;;4916821;29;20064;-76
2023/06/08 00:49:45;;;;;;;4.32;3.92;;;;;;;;;;4915413;29;20075;-76
2023/06/08 00:52:16;;;;;;;3.50;3.30;;;;;;;;;;4928079;29;20044;-75
2023/06/08 00:54:48;;;;;;;3.80;3.60;;;;;;;;;;4909150;29;20051;-76
2023/06/08 00:57:18;;;;;;;3.67;3.38;;;;;;;;;;4940333;29;20158;-75
2023/06/08 00:59:49;;;;;;;3.72;3.42;;;;;;;;;;4916768;29;20465;-76
2023/06/08 01:02:17;;;;;;;3.70;3.40;;;;;;;;;;4912401;29;20152;-75
2023/06/08 01:04:45;;;;;;;4.25;3.95;;;;;;;;;;4909978;29;20483;-75
2023/06/08 01:07:19;;;;;;;3.95;3.65;;;;;;;;;;4911825;29;20083;-75
2023/06/08 01:09:53;;;;;;;3.80;3.60;;;;;;;;;;4909690;29;20126;-75
2023/06/08 01:12:35;;;;;;;3.50;3.30;;;;;;;;;;4910110;29;20065;-76
2023/06/08 01:15:09;;;;;;;3.78;3.47;;;;;;;;;;4910463;29;20047;-76
2023/06/08 01:17:40;;;;;;;3.88;3.67;;;;;;;;;;4912465;29;20079;-75
2023/06/08 01:20:18;;;;;;;3.65;3.45;;;;;;;;;;4906192;29;20510;-76
2023/06/08 01:23:03;;;;;;;4.28;3.88;;;;;;;;;;4930339;29;20062;-75
2023/06/08 01:25:32;;;;;;;3.90;3.60;;;;;;;;;;4908015;29;20060;-75
2023/06/08 01:28:12;;;;;;;3.38;3.17;;;;;;;;;;4910629;29;20338;-76
2023/06/08 01:30:46;;;;;;;3.70;3.50;;;;;;;;;;4921972;29;20087;-74
2023/06/08 01:33:19;;;;;;;3.55;3.35;;;;;;;;;;4904060;29;20052;-75
2023/06/08 01:35:55;;;;;;;3.40;3.20;;;;;;;;;;4920018;29;20115;-76
2023/06/08 01:38:43;;;;;;;3.60;3.40;;;;;;;;;;4918525;29;20144;-76
2023/06/08 01:41:14;;;;;;;4.05;3.75;;;;;;;;;;4895559;29;20270;-76
2023/06/08 01:43:42;;;;;;;3.40;3.20;;;;;;;;;;4907770;29;20123;-76
2023/06/08 01:46:11;;;;;;;3.83;3.63;;;;;;;;;;4905608;29;20055;-76
2023/06/08 01:48:40;;;;;;;3.63;3.42;;;;;;;;;;4903625;29;20056;-75
2023/06/08 01:51:08;;;;;;;4.10;3.78;;;;;;;;;;4913866;29;20063;-74
2023/06/08 01:53:35;;;;;;;3.50;3.30;;;;;;;;;;4906578;29;20075;-75
2023/06/08 01:56:03;;;;;;;3.95;3.65;;;;;;;;;;4901307;29;20458;-75
2023/06/08 01:58:33;;;;;;;4.20;3.83;;;;;;;;;;4921629;29;20402;-75
2023/06/08 02:01:01;;;;;;;3.50;3.30;;;;;;;;;;4910237;29;20044;-75
2023/06/08 02:03:28;;;;;;;3.63;3.42;;;;;;;;;;4911697;29;20470;-76
2023/06/08 02:05:56;;;;;;;4.00;3.75;;;;;;;;;;4910520;29;20052;-76
2023/06/08 02:08:23;;;;;;;4.05;3.85;;;;;;;;;;4911174;29;20055;-75
2023/06/08 02:10:51;;;;;;;4.20;3.90;;;;;;;;;;4923761;28;20047;-75
2023/06/08 02:13:18;;;;;;;4.22;3.92;;;;;;;;;;4910473;29;20056;-76
2023/06/08 02:15:46;;;;;;;4.10;3.80;;;;;;;;;;4912345;29;20096;-75
2023/06/08 02:18:14;;;;;;;4.28;3.97;;;;;;;;;;4922856;29;20082;-74
2023/06/08 02:20:42;;;;;;;4.45;4.15;;;;;;;;;;4910162;29;20116;-75
2023/06/08 02:23:09;;;;;;;3.60;3.40;;;;;;;;;;4909736;29;20542;-75
2023/06/08 02:25:37;;;;;;;3.80;3.58;;;;;;;;;;4936307;23;20401;-77
2023/06/08 02:28:05;;;;;;;3.85;3.55;;;;;;;;;;4944468;28;20047;-76
2023/06/08 02:30:32;;;;;;;3.83;3.63;;;;;;;;;;4960089;28;20088;-77
2023/06/08 02:33:00;;;;;;;3.78;3.58;;;;;;;;;;4965824;28;20038;-77
2023/06/08 02:35:27;;;;;;;3.97;3.67;;;;;;;;;;4963228;28;20137;-77
2023/06/08 02:37:55;;;;;;;4.05;3.75;;;;;;;;;;4961513;28;20130;-77
2023/06/08 02:40:23;;;;;;;4.22;3.90;;;;;;;;;;4961494;28;20058;-77
2023/06/08 02:42:51;;;;;;;3.97;3.67;;;;;;;;;;4971704;28;20046;-76
2023/06/08 02:45:21;;;;;;;4.22;3.92;;;;;;;;;;4967818;28;20085;-76
2023/06/08 02:47:49;;;;;;;4.25;3.95;;;;;;;;;;4963957;28;20074;-76
2023/06/08 02:50:17;;;;;;;3.72;3.50;;;;;;;;;;4968578;28;20137;-76
2023/06/08 02:52:45;;;;;;;4.38;4.07;;;;;;;;;;4965515;28;20535;-77
2023/06/08 02:55:12;;;;;;;3.63;3.42;;;;;;;;;;4966517;28;20043;-77
2023/06/08 02:57:40;;;;;;;3.40;3.20;;;;;;;;;;4960921;28;20394;-77
2023/06/08 03:00:12;;;;;;;4.13;3.83;;;;;;;;;;4961964;28;20473;-77
2023/06/08 03:02:53;;;;;;;3.58;3.38;;;;;;;;;;4964178;28;20317;-77
2023/06/08 03:05:24;;;;;;;4.03;3.72;;;;;;;;;;4966558;28;20053;-77
2023/06/08 03:07:53;;;;;;;3.75;3.55;;;;;;;;;;4968693;28;20054;-77
2023/06/08 03:10:20;;;;;;;3.97;3.67;;;;;;;;;;4962032;28;20050;-76
2023/06/08 03:12:48;;;;;;;4.20;3.90;;;;;;;;;;4962599;28;20535;-77
2023/06/08 03:15:22;;;;;;;3.60;3.40;;;;;;;;;;4996825;28;20047;-76
2023/06/08 03:17:52;;;;;;;3.22;3.03;;;;;;;;;;4962402;28;20064;-77
2023/06/08 03:20:20;;;;;;;4.20;3.75;;;;;;;;;;4962674;28;20459;-76
2023/06/08 03:22:57;;;;;;;3.92;3.63;;;;;;;;;;4993063;28;20077;-77
2023/06/08 03:25:26;;;;;;;3.92;3.72;;;;;;;;;;4962327;28;20153;-77
2023/06/08 03:27:54;;;;;;;3.95;3.65;;;;;;;;;;4962261;28;20050;-77
2023/06/08 03:30:22;;;;;;;4.35;4.03;;;;;;;;;;4959899;28;20101;-76
2023/06/08 03:32:54;;;;;;;4.70;4.30;;;;;;;;;;4995299;28;20047;-77
2023/06/08 03:35:27;;;;;;;4.75;4.35;;;;;;;;;;4968481;28;20493;-77
2023/06/08 03:38:33;;;;;;;5.10;4.25;;;;;;;;;;4954551;28;20061;-76
2023/06/08 03:41:04;;;;;;;4.70;4.30;;;;;;;;;;4960618;28;20039;-76
2023/06/08 03:43:32;;;;;;;4.53;4.22;;;;;;;;;;4959732;28;20039;-77
2023/06/08 03:46:01;;;;;;;4.57;4.10;;;;;;;;;;4964253;28;20046;-77
2023/06/08 03:48:29;;;;;;;4.53;4.22;;;;;;;;;;4963168;28;20046;-77
2023/06/08 03:50:58;;;;;;;4.50;4.20;;;;;;;;;;4950088;28;20184;-76
2023/06/08 03:53:31;;;;;;;4.65;4.30;;;;;;;;;;4949651;28;20043;-76
2023/06/08 03:55:59;;;;;;;4.15;3.85;;;;;;;;;;4961910;28;20105;-76
2023/06/08 03:58:27;;;;;;;3.80;3.50;;;;;;;;;;4960965;28;20565;-76
2023/06/08 04:00:56;;;;;;;3.97;3.67;;;;;;;;;;4968037;28;20497;-77
2023/06/08 04:03:27;;;;;;;4.50;4.20;;;;;;;;;;4968453;28;20074;-76
2023/06/08 04:05:56;;;;;;;3.90;3.70;;;;;;;;;;4959564;28;20513;-77
2023/06/08 04:08:26;;;;;;;4.20;3.90;;;;;;;;;;4962956;28;20055;-77
2023/06/08 04:10:54;;;;;;;4.40;4.10;;;;;;;;;;4965459;28;20065;-77
2023/06/08 04:13:21;;;;;;;4.20;3.90;;;;;;;;;;4964507;28;20122;-78
2023/06/08 04:15:49;;;;;;;4.40;4.10;;;;;;;;;;4965436;28;20552;-77
2023/06/08 04:18:17;;;;;;;3.67;3.45;;;;;;;;;;4963585;28;20050;-78
2023/06/08 04:20:45;;;;;;;4.10;3.70;;;;;;;;;;4970755;28;20046;-77
2023/06/08 04:23:15;;;;;;;4.45;3.80;;;;;;;;;;4970672;28;20088;-76
2023/06/08 04:25:44;;;;;;;4.10;3.80;;;;;;;;;;4966777;28;20526;-76
2023/06/08 04:28:12;;;;;;;4.55;4.25;;;;;;;;;;4967626;28;20516;-75
2023/06/08 04:30:39;;;;;;;4.10;3.80;;;;;;;;;;4960240;28;20059;-76
2023/06/08 04:33:07;;;;;;;4.00;3.70;;;;;;;;;;4974748;28;20046;-76
2023/06/08 04:35:35;;;;;;;3.60;3.40;;;;;;;;;;4960764;28;20047;-75
2023/06/08 04:38:10;;;;;;;4.40;4.00;;;;;;;;;;4998071;28;20501;-76
2023/06/08 04:40:38;;;;;;;4.30;4.00;;;;;;;;;;4965214;28;20085;-76
2023/06/08 04:43:08;;;;;;;4.50;4.20;;;;;;;;;;4963727;28;20050;-76
2023/06/08 04:45:36;;;;;;;6.15;4.35;;;;;;;;;;4962415;28;20242;-76
2023/06/08 04:48:04;;;;;;;4.32;4.03;;;;;;;;;;4966274;28;20529;-78
2023/06/08 04:50:33;;;;;;;3.75;3.55;;;;;;;;;;4963216;28;20055;-76
2023/06/08 04:53:01;;;;;;;3.88;3.53;;;;;;;;;;4963326;28;20047;-75
2023/06/08 04:55:29;;;;;;;4.22;3.90;;;;;;;;;;4962948;28;20051;-75
2023/06/08 04:57:56;;;;;;;3.55;3.35;;;;;;;;;;4971594;28;20038;-74
2023/06/08 05:00:24;;;;;;;3.55;3.33;;;;;;;;;;4961935;28;20070;-76
2023/06/08 05:02:51;;;;;;;3.97;3.58;;;;;;;;;;4965865;28;20057;-77
2023/06/08 05:05:19;;;;;;;3.60;3.40;;;;;;;;;;4963269;28;20139;-77
2023/06/08 05:07:47;;;;;;;3.55;3.35;;;;;;;;;;4967680;28;20088;-77
2023/06/08 05:10:15;;;;;;;4.57;4.28;;;;;;;;;;4956967;28;20142;-77
2023/06/08 05:12:43;;;;;;;3.90;3.60;;;;;;;;;;4966590;28;20077;-77
2023/06/08 05:15:10;;;;;;;4.50;4.20;;;;;;;;;;4966922;28;20062;-76
2023/06/08 05:17:38;;;;;;;4.55;4.25;;;;;;;;;;4961544;28;20042;-76
2023/06/08 05:20:05;;;;;;;4.32;3.92;;;;;;;;;;4967806;28;20093;-77
2023/06/08 05:22:33;;;;;;;4.50;4.20;;;;;;;;;;4970046;28;20046;-78
2023/06/08 05:25:01;;;;;;;4.35;4.05;;;;;;;;;;4961584;28;20050;-78
2023/06/08 05:27:29;;;;;;;4.00;3.70;;;;;;;;;;4963461;28;20117;-76
2023/06/08 05:29:56;;;;;;;3.88;3.67;;;;;;;;;;4966471;28;20042;-77
2023/06/08 05:32:30;;;;;;;4.63;4.32;;;;;;;;;;4961852;28;20065;-76
2023/06/08 05:34:58;;;;;;;5.10;4.70;;;;;;;;;;4967159;28;20340;-77
2023/06/08 05:37:26;;;;;;;4.95;4.65;;;;;;;;;;4967190;28;20161;-77
2023/06/08 05:39:53;;;;;;;4.90;4.60;;;;;;;;;;4965939;28;20055;-77
2023/06/08 05:42:21;;;;;;;5.10;4.80;;;;;;;;;;4966906;28;20093;-77
2023/06/08 05:44:48;;;;;;;5.88;5.38;;;;;;;;;;4965552;28;20105;-77
2023/06/08 05:47:16;;;;;;;5.18;4.88;;;;;;;;;;4965189;28;20061;-78
2023/06/08 05:49:46;;;;;;;4.70;4.40;;;;;;;;;;4966037;28;20085;-78
2023/06/08 05:52:16;;;;;;;4.80;4.50;;;;;;;;;;4959799;28;20062;-78
2023/06/08 05:54:43;;;;;;;4.95;4.65;;;;;;;;;;4965918;28;20117;-76
2023/06/08 05:57:11;;;;;;;4.85;4.55;;;;;;;;;;4962233;28;20729;-76
2023/06/08 05:59:39;;;;;;;4.45;4.15;;;;;;;;;;4963251;28;20054;-76
2023/06/08 06:02:07;;;;;;;4.20;3.90;;;;;;;;;;4961964;28;20261;-76
2023/06/08 06:04:35;;;;;;;4.97;4.60;;;;;;;;;;4965226;28;20063;-75
2023/06/08 06:07:07;;;;;;;4.55;4.25;;;;;;;;;;4989594;28;20085;-76
2023/06/08 06:09:35;;;;;;;5.13;4.83;;;;;;;;;;4970380;28;20050;-76
2023/06/08 06:12:03;;;;;;;5.22;4.82;;;;;;;;;;4970317;28;20452;-76
2023/06/08 06:14:40;;;;;;;5.00;4.70;;;;;;;;;;4968161;28;20050;-76
2023/06/08 06:17:08;;;;;;;4.45;4.18;;;;;;;;;;4967503;28;20039;-76
2023/06/08 06:19:37;;;;;;;4.97;4.57;;;;;;;;;;4968745;28;20238;-76
2023/06/08 06:22:06;;;;;;;4.80;4.50;;;;;;;;;;4965237;28;20051;-76
2023/06/08 06:24:34;;;;;;;3.90;3.70;;;;;;;;;;4970376;28;20309;-76
2023/06/08 06:27:02;;;;;;;3.90;3.70;;;;;;;;;;4965502;28;20053;-76
2023/06/08 06:29:30;;;;;;;4.85;4.55;;;;;;;;;;4964681;28;20058;-77
2023/06/08 06:31:57;;;;;;;4.65;4.35;;;;;;;;;;4956425;28;20726;-77
2023/06/08 06:34:25;;;;;;;3.53;3.33;;;;;;;;;;4960332;28;20061;-77
2023/06/08 06:36:53;;;;;;;3.67;3.47;;;;;;;;;;4964688;28;20515;-76
2023/06/08 06:39:20;;;;;;;3.55;3.35;;;;;;;;;;4946651;28;20085;-76
2023/06/08 06:41:48;;;;;;;3.40;3.20;;;;;;;;;;4956531;28;20047;-76
2023/06/08 06:44:20;;;;;;;3.15;2.95;;;;;;;;;;4999412;28;20047;-76
2023/06/08 06:46:48;;;;;;;3.38;3.13;;;;;;;;;;4966438;28;20043;-76
2023/06/08 06:49:15;;;;;;;3.50;3.30;;;;;;;;;;4969330;28;20043;-76
2023/06/08 06:51:42;;;;;;;3.47;3.28;;;;;;;;;;4968690;28;20055;-76
2023/06/08 06:54:10;;;;;;;3.60;3.40;;;;;;;;;;4963343;28;20058;-77
2023/06/08 06:56:38;;;;;;;2.75;2.65;;;;;;;;;;4961821;28;20043;-77
2023/06/08 06:59:05;;;;;;;2.95;2.75;;;;;;;;;;4962013;28;20043;-78
2023/06/08 07:01:36;;;;;;;3.00;2.80;;;;;;;;;;4957476;28;20050;-75
2023/06/08 07:04:05;;;;;;;3.00;2.87;;;;;;;;;;4959825;28;20101;-76
2023/06/08 07:06:33;;;;;;;3.10;2.90;;;;;;;;;;4957369;28;20524;-76
2023/06/08 07:09:00;;;;;;;2.92;2.72;;;;;;;;;;4966273;28;20043;-76
2023/06/08 07:11:28;;;;;;;3.05;2.95;;;;;;;;;;4956431;28;20053;-76
2023/06/08 07:13:57;;;;;;;2.92;2.72;;;;;;;;;;4956875;28;20050;-76
2023/06/08 07:16:24;;;;;;;3.50;3.30;;;;;;;;;;4960454;28;20057;-77
2023/06/08 07:18:54;;;;;;;2.80;2.70;;;;;;;;;;4962596;28;20058;-78
2023/06/08 07:21:23;;;;;;;2.60;2.50;;;;;;;;;;4956282;28;20070;-77
2023/06/08 07:23:57;;;;;;;2.60;2.40;;;;;;;;;;4958181;28;20050;-76
2023/06/08 07:26:45;;;;;;;2.50;2.40;;;;;;;;;;4965445;28;20061;-76
2023/06/08 07:29:13;;;;;;;2.97;2.80;;;;;;;;;;4955707;28;20047;-76
2023/06/08 07:31:41;;;;;;;2.78;2.67;;;;;;;;;;4958399;28;20051;-76
2023/06/08 07:34:08;;;;;;;2.25;2.15;;;;;;;;;;4963162;28;20515;-77
2023/06/08 07:36:36;;;;;;;2.70;2.60;;;;;;;;;;4959917;28;20059;-76
2023/06/08 07:39:03;;;;;;;2.80;2.70;;;;;;;;;;4963280;28;20065;-77
2023/06/08 07:41:31;;;;;;;2.75;2.55;;;;;;;;;;4957035;28;22861;-75
2023/06/08 07:44:02;;;;;;;2.60;2.50;;;;;;;;;;4960779;28;20137;-76
2023/06/08 07:46:31;;;;;;;2.40;2.30;;;;;;;;;;4950606;28;20149;-76
2023/06/08 07:48:58;;;;;;;2.60;2.50;;;;;;;;;;4957745;28;20043;-75
2023/06/08 07:51:26;;;;;;;2.70;2.50;;;;;;;;;;4958442;28;20054;-76
2023/06/08 07:53:53;;;;;;;2.67;2.47;;;;;;;;;;4950133;28;20066;-76
2023/06/08 07:56:21;;;;;;;2.80;2.60;;;;;;;;;;4955778;28;20561;-75
2023/06/08 07:58:49;;;;;;;2.70;2.60;;;;;;;;;;4961652;28;20039;-75
2023/06/08 08:01:17;;;;;;;3.20;3.00;;;;;;;;;;4964781;28;20128;-75
2023/06/08 08:03:44;;;;;;;3.40;3.20;;;;;;;;;;4964565;28;20051;-76
2023/06/08 08:06:13;;;;;;;2.55;2.45;;;;;;;;;;4959903;28;20042;-77
2023/06/08 08:08:41;;;;;;;2.92;2.78;;;;;;;;;;4958619;28;20054;-77
2023/06/08 08:11:09;;;;;;;3.60;2.60;;;;;;;;;;4957664;28;20449;-77
2023/06/08 08:13:37;;;;;;;2.92;2.70;;;;;;;;;;4958886;28;20066;-76
2023/06/08 08:16:05;;;;;;;3.47;3.28;;;;;;;;;;4959355;28;20050;-77
2023/06/08 08:18:32;;;;;;;3.70;3.50;;;;;;;;;;4957708;28;20047;-76
2023/06/08 08:21:00;;;;;;;2.67;2.58;;;;;;;;;;4954619;28;20387;-76
2023/06/08 08:23:27;;;;;;;2.70;2.50;;;;;;;;;;4958376;28;20042;-76
2023/06/08 08:25:55;;;;;;;2.75;2.58;;;;;;;;;;5008861;23;20055;-78
2023/06/08 08:28:23;;;;;;;2.80;2.60;;;;;;;;;;4941266;28;20666;-77
2023/06/08 08:30:51;;;;;;;2.20;2.10;;;;;;;;;;4948044;28;20505;-78
2023/06/08 08:33:18;;;;;;;2.50;2.40;;;;;;;;;;4947127;28;20477;-77
2023/06/08 08:35:46;;;;;;;2.67;2.47;;;;;;;;;;4948430;28;20043;-77
2023/06/08 08:38:14;;;;;;;3.28;3.00;;;;;;;;;;4948629;28;20555;-77
2023/06/08 08:40:41;;;;;;;2.55;2.45;;;;;;;;;;4946070;28;20591;-77
2023/06/08 08:43:41;;;;;;;3.03;2.92;;;;;;;;;;4943726;28;20035;-76
2023/06/08 08:46:11;;;;;;;3.47;3.22;;;;;;;;;;4928022;28;20044;-77
2023/06/08 08:48:42;;;;;;;3.38;3.17;;;;;;;;;;4936799;28;20094;-77
2023/06/08 08:51:12;;;;;;;;;;;;;;;;;;4945337;28;20068;-76
2023/06/08 08:53:40;;;;;;;2.50;2.40;;;;;;;;;;4942507;28;19957;-75
2023/06/08 08:56:09;;;;;;;2.45;2.35;;;;;;;;;;4946431;28;20138;-76
2023/06/08 08:58:36;;;;;;;3.10;3.00;;;;;;;;;;4956059;28;20394;-76
2023/06/08 09:01:05;;;;;;;2.50;2.40;;;;;;;;;;4948654;28;20055;-77
2023/06/08 09:03:32;;;;;;;2.85;2.75;;;;;;;;;;4948230;28;20051;-76
2023/06/08 09:06:00;;;;;;;2.60;2.50;;;;;;;;;;4948353;28;20265;-77
2023/06/08 09:08:27;;;;;;;2.13;2.03;;;;;;;;;;4953737;28;20046;-76
2023/06/08 09:11:04;;;;;;;2.40;2.30;;;;;;;;;;4947037;28;20047;-77
2023/06/08 09:13:32;;;;;;;3.08;2.88;;;;;;;;;;4953214;28;20082;-76
2023/06/08 09:16:10;;;;;;;2.58;2.47;;;;;;;;;;4958992;28;20122;-76
2023/06/08 09:18:37;;;;;;;2.40;2.30;;;;;;;;;;4946717;28;20114;-76
2023/06/08 09:21:26;;;;;;;2.30;2.20;;;;;;;;;;4945289;28;20295;-76
2023/06/08 09:24:14;;;;;;;2.97;2.78;;;;;;;;;;4948784;28;20047;-77
2023/06/08 09:26:45;;;;;;;2.17;2.08;;;;;;;;;;4944765;28;20113;-75
2023/06/08 09:29:30;;;;;;;2.38;2.28;;;;;;;;;;4946595;28;20055;-76
2023/06/08 09:32:00;;;;;;;2.85;2.72;;;;;;;;;;4951968;28;20472;-77
2023/06/08 09:34:33;;;;;;;2.92;2.50;;;;;;;;;;4941269;28;20031;-76
2023/06/08 09:37:06;;;;;;;2.72;2.53;;;;;;;;;;4953719;28;20553;-76
2023/06/08 09:39:40;;;;;;;3.10;2.90;;;;;;;;;;4953523;28;20330;-77
2023/06/08 09:42:09;;;;;;;2.50;2.30;;;;;;;;;;4949958;28;20047;-76
2023/06/08 09:44:38;;;;;;;2.20;2.10;;;;;;;;;;4949509;28;20054;-78
2023/06/08 09:47:25;;;;;;;2.30;2.20;;;;;;;;;;4955991;28;20043;-76
2023/06/08 09:49:54;;;;;;;2.78;2.58;;;;;;;;;;4959661;28;20501;-77
2023/06/08 09:52:25;;;;;;;2.60;2.50;;;;;;;;;;4954964;28;20198;-78
2023/06/08 09:54:52;;;;;;;2.22;2.13;;;;;;;;;;4956219;28;20047;-77
2023/06/08 09:57:20;;;;;;;2.40;2.30;;;;;;;;;;4953559;28;20051;-77
2023/06/08 09:59:56;;;;;;;2.35;2.25;;;;;;;;;;4954974;28;20070;-77
2023/06/08 10:02:35;;;;;;;2.20;2.10;;;;;;;;;;4951699;28;20778;-76
2023/06/08 10:05:09;;;;;;;2.30;2.20;;;;;;;;;;4951908;28;20161;-77
2023/06/08 10:07:38;;;;;;;2.20;2.10;;;;;;;;;;4953831;28;20087;-77
2023/06/08 10:10:13;;;;;;;1.70;1.70;;;;;;;;;;4946661;28;20106;-76
2023/06/08 10:12:40;;;;;;;2.13;2.03;;;;;;;;;;4951182;28;20114;-76
2023/06/08 10:15:08;;;;;;;2.00;1.90;;;;;;;;;;4956655;28;20039;-77
2023/06/08 10:17:36;;;;;;;2.15;2.05;;;;;;;;;;4966705;28;20027;-76
2023/06/08 10:20:05;;;;;;;3.05;2.60;;;;;;;;;;4969824;28;20075;-77
2023/06/08 10:22:33;;;;;;;2.17;2.08;;;;;;;;;;4965421;28;20071;-77
2023/06/08 10:25:02;;;;;;;2.45;2.28;;;;;;;;;;4954072;28;20055;-77
2023/06/08 10:27:36;;;;;;;2.50;2.40;;;;;;;;;;4956903;28;20061;-76
2023/06/08 10:30:05;;;;;;;2.58;2.47;;;;;;;;;;4956982;28;20059;-77
2023/06/08 10:32:34;;;;;;;2.60;2.50;;;;;;;;;;4961262;28;20058;-76
2023/06/08 10:35:04;;;;;;;2.45;2.35;;;;;;;;;;4956187;28;20048;-78
2023/06/08 10:37:35;;;;;;;2.50;2.40;;;;;;;;;;4965209;28;20051;-77
2023/06/08 10:40:10;;;;;;;2.38;2.28;;;;;;;;;;4954031;28;20079;-76
2023/06/08 10:42:38;;;;;;;2.17;2.08;;;;;;;;;;4951525;28;20102;-78
2023/06/08 10:45:06;;;;;;;2.05;1.95;;;;;;;;;;4943181;28;20058;-78
2023/06/08 10:47:37;;;;;;;1.92;1.83;;;;;;;;;;4952229;28;20065;-78
2023/06/08 10:50:06;;;;;;;3.20;2.45;;;;;;;;;;4945916;28;20059;-77
2023/06/08 10:52:42;;;;;;;2.10;2.00;;;;;;;;;;4957615;28;20047;-76
2023/06/08 10:55:11;;;;;;;2.50;2.40;;;;;;;;;;4946506;28;20070;-76
2023/06/08 10:57:46;;;;;;;2.25;2.15;;;;;;;;;;4953655;28;20061;-77
2023/06/08 11:00:30;;;;;;;3.08;2.88;;;;;;;;;;4948530;28;20167;-77
2023/06/08 11:03:03;;;;;;;2.10;2.00;;;;;;;;;;4947781;28;20052;-77
2023/06/08 11:05:34;;;;;;;2.30;2.20;;;;;;;;;;4951172;28;20051;-77
2023/06/08 11:08:03;;;;;;;2.05;1.95;;;;;;;;;;4952062;28;20058;-78
2023/06/08 11:10:32;;;;;;;2.50;2.30;;;;;;;;;;4954847;28;20123;-78
2023/06/08 11:13:06;;;;;;;2.50;2.30;;;;;;;;;;4947216;28;20055;-77
2023/06/08 11:15:37;;;;;;;2.10;2.00;;;;;;;;;;4943816;28;20110;-78
2023/06/08 11:18:07;;;;;;;1.90;1.80;;;;;;;;;;4947896;28;20102;-78
2023/06/08 11:20:37;;;;;;;1.90;1.80;;;;;;;;;;4944777;28;20058;-78
2023/06/08 11:23:10;;;;;;;2.22;2.08;;;;;;;;;;4951396;28;20051;-76
2023/06/08 11:25:38;;;;;;;2.08;2.00;;;;;;;;;;4934765;28;20054;-78
2023/06/08 11:28:10;;;;;;;1.95;1.85;;;;;;;;;;4947141;28;20090;-77
2023/06/08 11:30:38;;;;;;;2.25;2.15;;;;;;;;;;4948730;28;20039;-78
2023/06/08 11:33:06;;;;;;;2.25;2.15;;;;;;;;;;4949477;28;20126;-78
2023/06/08 11:35:34;;;;;;;2.20;2.10;;;;;;;;;;4948463;28;20145;-77
2023/06/08 11:38:02;;;;;;;2.50;2.33;;;;;;;;;;4956891;28;20041;-78
2023/06/08 11:40:31;;;;;;;1.77;1.73;;;;;;;;;;4943527;28;20047;-78
2023/06/08 11:43:00;;;;;;;2.10;2.00;;;;;;;;;;4939814;28;20044;-78
2023/06/08 11:45:28;;;;;;;1.88;1.77;;;;;;;;;;4942226;28;20071;-77
2023/06/08 11:47:57;;;;;;;2.10;2.00;;;;;;;;;;4952169;28;20139;-78
2023/06/08 11:50:48;;;;;;;2.20;2.10;;;;;;;;;;4943520;28;20059;-77
2023/06/08 11:53:22;;;;;;;2.03;1.92;;;;;;;;;;4944967;28;20059;-78
2023/06/08 11:55:52;;;;;;;1.70;1.70;;;;;;;;;;4948729;28;20056;-77
2023/06/08 11:58:24;;;;;;;1.80;1.80;;;;;;;;;;4948480;28;20047;-78
2023/06/08 12:00:51;;;;;;;2.03;1.92;;;;;;;;;;4928097;29;20047;-78
2023/06/08 12:03:19;;;;;;;1.70;1.70;;;;;;;;;;4949790;28;20051;-77
2023/06/08 12:05:47;;;;;;;2.20;2.10;;;;;;;;;;4948660;28;20078;-77
2023/06/08 12:08:15;;;;;;;2.10;2.00;;;;;;;;;;4948219;28;20059;-78
2023/06/08 12:10:46;;;;;;;2.13;2.03;;;;;;;;;;4948441;28;20047;-77
2023/06/08 12:13:22;;;;;;;2.17;2.08;;;;;;;;;;4949838;28;20047;-77
2023/06/08 12:15:51;;;;;;;2.13;2.03;;;;;;;;;;4948328;28;20051;-78
2023/06/08 12:18:19;;;;;;;1.98;1.88;;;;;;;;;;4961341;28;20070;-78
2023/06/08 12:20:48;;;;;;;2.05;1.95;;;;;;;;;;4964953;28;20053;-77
2023/06/08 12:23:15;;;;;;;1.92;1.83;;;;;;;;;;4951026;28;20054;-78
2023/06/08 12:25:43;;;;;;;2.30;2.00;;;;;;;;;;4954427;28;20239;-77
2023/06/08 12:28:21;;;;;;;2.03;1.92;;;;;;;;;;4965022;28;20058;-77
2023/06/08 12:30:50;;;;;;;1.98;1.88;;;;;;;;;;4949018;28;20062;-78
2023/06/08 12:33:19;;;;;;;2.08;1.98;;;;;;;;;;4948477;28;20533;-78
2023/06/08 12:35:51;;;;;;;1.67;1.67;;;;;;;;;;4956071;28;20527;-77
2023/06/08 12:38:20;;;;;;;1.25;1.25;;;;;;;;;;4949949;28;20040;-78
2023/06/08 12:40:48;;;;;;;1.90;1.80;;;;;;;;;;4953479;28;20397;-78
2023/06/08 12:43:16;;;;;;;2.22;2.05;;;;;;;;;;4960727;28;20055;-78
2023/06/08 12:45:47;;;;;;;2.00;1.90;;;;;;;;;;4953711;28;20480;-78
2023/06/08 12:48:14;;;;;;;1.88;1.77;;;;;;;;;;4956453;28;20047;-76
2023/06/08 12:50:42;;;;;;;1.70;1.60;;;;;;;;;;4959926;28;20067;-78
2023/06/08 12:53:10;;;;;;;2.15;2.05;;;;;;;;;;4967969;28;20079;-77
2023/06/08 12:55:37;;;;;;;2.10;2.00;;;;;;;;;;4971312;28;20051;-77
2023/06/08 12:58:04;;;;;;;2.00;1.90;;;;;;;;;;4964228;28;20078;-77
2023/06/08 13:00:32;;;;;;;2.15;2.00;;;;;;;;;;4980196;28;20315;-76
2023/06/08 13:02:59;;;;;;;2.15;1.67;;;;;;;;;;4970659;28;20047;-78
2023/06/08 13:05:29;;;;;;;1.58;1.58;;;;;;;;;;4957691;28;20055;-78
2023/06/08 13:08:05;;;;;;;2.15;2.05;;;;;;;;;;4956051;28;20252;-77
2023/06/08 13:10:33;;;;;;;1.98;1.88;;;;;;;;;;4956253;28;20134;-78
2023/06/08 13:13:02;;;;;;;1.55;1.55;;;;;;;;;;4954935;28;20466;-77
2023/06/08 13:15:31;;;;;;;1.38;1.38;;;;;;;;;;4965610;28;20066;-78
2023/06/08 13:17:59;;;;;;;1.73;1.63;;;;;;;;;;4962365;28;20058;-78
2023/06/08 13:20:27;;;;;;;1.55;1.55;;;;;;;;;;4955841;28;20051;-76
2023/06/08 13:22:54;;;;;;;2.03;1.92;;;;;;;;;;4963982;28;20049;-77
2023/06/08 13:25:22;;;;;;;1.70;1.70;;;;;;;;;;4957151;28;20054;-77
2023/06/08 13:27:50;;;;;;;1.88;1.77;;;;;;;;;;4955925;28;20051;-78
2023/06/08 13:30:17;;;;;;;1.90;1.80;;;;;;;;;;4951633;28;20055;-77
2023/06/08 13:32:45;;;;;;;1.35;1.35;;;;;;;;;;4956182;28;20059;-77
2023/06/08 13:35:13;;;;;;;1.67;1.67;;;;;;;;;;4963662;28;20524;-77
2023/06/08 13:37:41;;;;;;;2.10;2.00;;;;;;;;;;4965957;28;20049;-76
2023/06/08 13:40:10;;;;;;;1.85;1.75;;;;;;;;;;4960002;28;20133;-77
2023/06/08 13:42:39;;;;;;;1.83;1.73;;;;;;;;;;4957917;28;20046;-77
2023/06/08 13:45:11;;;;;;;1.70;1.60;;;;;;;;;;4959494;28;20129;-78
2023/06/08 13:47:40;;;;;;;2.00;1.90;;;;;;;;;;4951597;28;20050;-77
2023/06/08 13:50:09;;;;;;;2.00;1.90;;;;;;;;;;4964046;28;20050;-77
2023/06/08 13:52:38;;;;;;;1.83;1.73;;;;;;;;;;4946910;28;20066;-77
2023/06/08 13:55:06;;;;;;;1.88;1.88;;;;;;;;;;4955911;28;20067;-77
2023/06/08 13:57:33;;;;;;;1.85;1.75;;;;;;;;;;4956101;28;20045;-77
2023/06/08 14:00:02;;;;;;;1.80;1.70;;;;;;;;;;4950074;28;20043;-78
2023/06/08 14:02:39;;;;;;;1.58;1.58;;;;;;;;;;4942149;28;20394;-77
2023/06/08 14:05:07;;;;;;;1.60;1.50;;;;;;;;;;4950919;28;20130;-76
2023/06/08 14:07:35;;;;;;;1.80;1.80;;;;;;;;;;4948317;28;20082;-77
2023/06/08 14:10:05;;;;;;;1.90;1.80;;;;;;;;;;4950845;28;20043;-77
2023/06/08 14:12:33;;;;;;;;;;;;;;;;;;4951562;28;20051;-77
2023/06/08 14:15:01;;;;;;;1.80;1.70;;;;;;;;;;4948237;28;19965;-76
2023/06/08 14:17:30;;;;;;;2.22;2.13;;;;;;;;;;4954423;28;20061;-76
2023/06/08 14:19:58;;;;;;;1.80;1.70;;;;;;;;;;4952789;28;20211;-77
2023/06/08 14:22:26;;;;;;;2.00;1.90;;;;;;;;;;4948430;28;20577;-77
2023/06/08 14:24:53;;;;;;;2.30;2.20;;;;;;;;;;4953809;28;20091;-77
2023/06/08 14:27:21;;;;;;;1.98;1.88;;;;;;;;;;4963326;23;20121;-75
2023/06/08 14:29:48;;;;;;;1.98;1.88;;;;;;;;;;4951484;28;20071;-75
2023/06/08 14:32:15;;;;;;;1.90;1.80;;;;;;;;;;4957038;28;20054;-74
2023/06/08 14:34:43;;;;;;;1.45;1.35;;;;;;;;;;4949925;28;20125;-75
2023/06/08 14:37:10;;;;;;;1.10;1.10;;;;;;;;;;4950797;28;20148;-75
2023/06/08 14:39:38;;;;;;;2.83;1.23;;;;;;;;;;4949738;28;20191;-75
2023/06/08 14:42:08;;;;;;;0.95;0.95;;;;;;;;;;4951097;28;20050;-74
2023/06/08 14:44:36;;;;;;;1.00;1.00;;;;;;;;;;4953190;28;20035;-75
2023/06/08 14:47:03;;;;;;;1.55;1.45;;;;;;;;;;4947082;28;20062;-75
2023/06/08 14:49:35;;;;;;;1.00;1.00;;;;;;;;;;4949259;28;20046;-75
2023/06/08 14:52:03;;;;;;;1.52;1.40;;;;;;;;;;4953146;28;20050;-75
2023/06/08 14:54:30;;;;;;;1.10;1.10;;;;;;;;;;4953322;28;20070;-76
2023/06/08 14:56:58;;;;;;;1.10;1.10;;;;;;;;;;4956049;28;20051;-75